Wind From: 10-12-2017 19:04 Until: 11-12-2017 16:00 warning for: Wind Level: Orange info button

Power and phone distribution networks may be disrupted for relatively long periods., Roofs and chimneys can be damaged. , Tree branches may break. , Vehicles can be deported. , Traffic may be disrupted, particularly on secondary roads in forest areas. Limit your trips. , Limit your speed in highway driving, especially if you drive a vehicle or hitch sensitive to wind. , Do not go for walks in forests or along the coast., In town, be vigilant against possible falling objects., Do not work on roofs and do not touch any electrical line fallen on the ground., Store or secure sensitive objects to wind or likely to be damaged., Always install power generators outside buildings. 


Meteo18 Weather Cam more information Meteo18 Weather Cam


Thunder radar more information blitzortung!


Rain radar more information rain snow radar


Visit our other weather sites:

Template documentation
and downloads

And another site



Weather Underground History page Text

Daily Summary for June 8, 2017 Units:  Both    English   Metric
« Previous Day
Next Day »
Daily Weekly Monthly Yearly Custom
  High: Low: Average:
Temperature: 81.1 °F /  27.3 °C 47.7 °F /  8.7 °C 64.6 °F /  18.1 °C
Dew Point: 61.3 °F /  16.3 °C 46 °F /  7.8 °C 53.4 °F /  11.9 °C
Humidity: 96 % 42 % 70 %
Wind Speed: 10 mph /  16.1 km/h - 1.4 mph /  2.2 km/h
Wind Gust: 12 mph /  19.3 km/h - -
Wind:- - SSE
Pressure: 30.2 in /  1021.6 hPa 29.9 in /  1011.7 hPa -
Precipitation: 0 in /  0.0 mm    
Historical Graphs
 
 
Tabular Data for June 8, 2017
Time Temperature Dew Point Pressure Wind Wind Speed Wind Gust Humidity Rainfall Rate (Hourly)
00:02 52.9 °F /  11.6 °C 49.1 °F /  9.5 °C 30.2 in /  1021.6 hPa Calm     87 % 0 in /  0.0 mm
00:07 52.5 °F /  11.4 °C 48.7 °F /  9.3 °C 30.2 in /  1021.6 hPa Calm     87 % 0 in /  0.0 mm
00:12 52.3 °F /  11.3 °C 48.6 °F /  9.2 °C 30.2 in /  1021.6 hPa Calm     87 % 0 in /  0.0 mm
00:17 52.2 °F /  11.2 °C 48.4 °F /  9.1 °C 30.2 in /  1021.6 hPa Calm     87 % 0 in /  0.0 mm
00:22 52.2 °F /  11.2 °C 48.7 °F /  9.3 °C 30.2 in /  1021.6 hPa Calm     88 % 0 in /  0.0 mm
00:27 52.2 °F /  11.2 °C 48.7 °F /  9.3 °C 30.2 in /  1021.2 hPa Calm     88 % 0 in /  0.0 mm
00:32 52.2 °F /  11.2 °C 48.4 °F /  9.1 °C 30.2 in /  1021.6 hPa Calm     87 % 0 in /  0.0 mm
00:42 52 °F /  11.1 °C 48.2 °F /  9.0 °C 30.2 in /  1021.6 hPa Calm     87 % 0 in /  0.0 mm
00:52 52.2 °F /  11.2 °C 48.4 °F /  9.1 °C 30.2 in /  1021.2 hPa Calm     87 % 0 in /  0.0 mm
00:57 52 °F /  11.1 °C 48.2 °F /  9.0 °C 30.2 in /  1021.2 hPa Calm     87 % 0 in /  0.0 mm
01:02 52 °F /  11.1 °C 48.6 °F /  9.2 °C 30.2 in /  1021.2 hPa Calm     88 % 0 in /  0.0 mm
01:07 52 °F /  11.1 °C 48.6 °F /  9.2 °C 30.2 in /  1021.2 hPa Calm     88 % 0 in /  0.0 mm
01:12 51.8 °F /  11.0 °C 48.4 °F /  9.1 °C 30.2 in /  1021.2 hPa Calm     88 % 0 in /  0.0 mm
01:17 51.6 °F /  10.9 °C 48.2 °F /  9.0 °C 30.2 in /  1021.2 hPa Calm     88 % 0 in /  0.0 mm
01:22 51.6 °F /  10.9 °C 48.6 °F /  9.2 °C 30.2 in /  1021.2 hPa Calm     89 % 0 in /  0.0 mm
01:27 51.6 °F /  10.9 °C 48.6 °F /  9.2 °C 30.2 in /  1020.9 hPa Calm     89 % 0 in /  0.0 mm
01:32 51.6 °F /  10.9 °C 48.6 °F /  9.2 °C 30.2 in /  1020.9 hPa Calm     89 % 0 in /  0.0 mm
01:37 51.6 °F /  10.9 °C 48.6 °F /  9.2 °C 30.2 in /  1020.9 hPa Calm     89 % 0 in /  0.0 mm
01:42 51.6 °F /  10.9 °C 48.6 °F /  9.2 °C 30.2 in /  1020.9 hPa Calm     89 % 0 in /  0.0 mm
01:47 51.4 °F /  10.8 °C 48.4 °F /  9.1 °C 30.2 in /  1020.9 hPa Calm     89 % 0 in /  0.0 mm
01:52 51.3 °F /  10.7 °C 48.2 °F /  9.0 °C 30.2 in /  1020.9 hPa Calm     89 % 0 in /  0.0 mm
01:57 51.1 °F /  10.6 °C 48 °F /  8.9 °C 30.2 in /  1020.9 hPa Calm     89 % 0 in /  0.0 mm
02:02 51.1 °F /  10.6 °C 48 °F /  8.9 °C 30.2 in /  1020.9 hPa Calm     89 % 0 in /  0.0 mm
02:07 50.7 °F /  10.4 °C 47.8 °F /  8.8 °C 30.2 in /  1020.9 hPa Calm     90 % 0 in /  0.0 mm
02:12 50.7 °F /  10.4 °C 47.8 °F /  8.8 °C 30.2 in /  1020.9 hPa Calm     90 % 0 in /  0.0 mm
02:17 50.5 °F /  10.3 °C 47.7 °F /  8.7 °C 30.2 in /  1020.9 hPa Calm     90 % 0 in /  0.0 mm
02:22 50.5 °F /  10.3 °C 47.7 °F /  8.7 °C 30.2 in /  1020.9 hPa Calm     90 % 0 in /  0.0 mm
02:27 50.4 °F /  10.2 °C 47.8 °F /  8.8 °C 30.2 in /  1020.9 hPa Calm     91 % 0 in /  0.0 mm
02:32 50.2 °F /  10.1 °C 47.7 °F /  8.7 °C 30.1 in /  1020.5 hPa Calm     91 % 0 in /  0.0 mm
02:37 49.8 °F /  9.9 °C 47.3 °F /  8.5 °C 30.1 in /  1020.5 hPa Calm     91 % 0 in /  0.0 mm
02:42 49.8 °F /  9.9 °C 47.7 °F /  8.7 °C 30.1 in /  1020.5 hPa Calm     92 % 0 in /  0.0 mm
02:47 49.8 °F /  9.9 °C 47.7 °F /  8.7 °C 30.1 in /  1020.5 hPa Calm     92 % 0 in /  0.0 mm
02:52 49.8 °F /  9.9 °C 47.8 °F /  8.8 °C 30.1 in /  1020.5 hPa Calm     93 % 0 in /  0.0 mm
02:57 50.2 °F /  10.1 °C 48 °F /  8.9 °C 30.1 in /  1020.5 hPa Calm     92 % 0 in /  0.0 mm
03:02 50.2 °F /  10.1 °C 48 °F /  8.9 °C 30.1 in /  1020.5 hPa Calm     92 % 0 in /  0.0 mm
03:07 50.4 °F /  10.2 °C 48.2 °F /  9.0 °C 30.1 in /  1020.5 hPa Calm     92 % 0 in /  0.0 mm
03:12 50.4 °F /  10.2 °C 48.2 °F /  9.0 °C 30.1 in /  1020.5 hPa Calm     92 % 0 in /  0.0 mm
03:17 50 °F /  10.0 °C 47.8 °F /  8.8 °C 30.1 in /  1020.5 hPa Calm     92 % 0 in /  0.0 mm
03:22 49.8 °F /  9.9 °C 47.7 °F /  8.7 °C 30.1 in /  1020.5 hPa Calm     92 % 0 in /  0.0 mm
03:27 49.6 °F /  9.8 °C 47.5 °F /  8.6 °C 30.1 in /  1020.2 hPa Calm     92 % 0 in /  0.0 mm
03:32 49.5 °F /  9.7 °C 47.5 °F /  8.6 °C 30.1 in /  1020.2 hPa Calm     93 % 0 in /  0.0 mm
03:37 49.6 °F /  9.8 °C 47.7 °F /  8.7 °C 30.1 in /  1020.2 hPa Calm     93 % 0 in /  0.0 mm
03:42 49.6 °F /  9.8 °C 47.5 °F /  8.6 °C 30.1 in /  1020.2 hPa Calm     92 % 0 in /  0.0 mm
03:47 49.5 °F /  9.7 °C 47.3 °F /  8.5 °C 30.1 in /  1020.2 hPa Calm     92 % 0 in /  0.0 mm
03:52 49.3 °F /  9.6 °C 47.3 °F /  8.5 °C 30.1 in /  1020.2 hPa Calm     93 % 0 in /  0.0 mm
03:57 49.5 °F /  9.7 °C 47.5 °F /  8.6 °C 30.1 in /  1020.2 hPa Calm     93 % 0 in /  0.0 mm
04:02 49.3 °F /  9.6 °C 47.3 °F /  8.5 °C 30.1 in /  1020.2 hPa Calm     93 % 0 in /  0.0 mm
04:07 48.9 °F /  9.4 °C 46.9 °F /  8.3 °C 30.1 in /  1020.2 hPa Calm     93 % 0 in /  0.0 mm
04:12 48.7 °F /  9.3 °C 46.8 °F /  8.2 °C 30.1 in /  1020.2 hPa Calm     93 % 0 in /  0.0 mm
04:17 48.6 °F /  9.2 °C 46.6 °F /  8.1 °C 30.1 in /  1020.2 hPa Calm     93 % 0 in /  0.0 mm
04:22 48.4 °F /  9.1 °C 46.4 °F /  8.0 °C 30.1 in /  1020.2 hPa Calm     93 % 0 in /  0.0 mm
04:27 48.4 °F /  9.1 °C 46.4 °F /  8.0 °C 30.1 in /  1020.2 hPa Calm     93 % 0 in /  0.0 mm
04:32 48.2 °F /  9.0 °C 46.2 °F /  7.9 °C 30.1 in /  1020.2 hPa Calm     93 % 0 in /  0.0 mm
04:37 48 °F /  8.9 °C 46 °F /  7.8 °C 30.1 in /  1019.9 hPa Calm     93 % 0 in /  0.0 mm
04:42 47.8 °F /  8.8 °C 46.2 °F /  7.9 °C 30.1 in /  1019.9 hPa Calm     94 % 0 in /  0.0 mm
04:47 48 °F /  8.9 °C 46.4 °F /  8.0 °C 30.1 in /  1019.9 hPa Calm     94 % 0 in /  0.0 mm
04:52 48 °F /  8.9 °C 46.4 °F /  8.0 °C 30.1 in /  1019.9 hPa Calm     94 % 0 in /  0.0 mm
05:02 48 °F /  8.9 °C 46.4 °F /  8.0 °C 30.1 in /  1019.9 hPa Calm     94 % 0 in /  0.0 mm
05:07 47.8 °F /  8.8 °C 46.2 °F /  7.9 °C 30.1 in /  1019.9 hPa Calm     94 % 0 in /  0.0 mm
05:12 47.8 °F /  8.8 °C 46.2 °F /  7.9 °C 30.1 in /  1019.9 hPa Calm     94 % 0 in /  0.0 mm
05:17 47.7 °F /  8.7 °C 46 °F /  7.8 °C 30.1 in /  1019.9 hPa Calm     94 % 0 in /  0.0 mm
05:22 47.7 °F /  8.7 °C 46.2 °F /  7.9 °C 30.1 in /  1019.9 hPa Calm     95 % 0 in /  0.0 mm
05:32 47.7 °F /  8.7 °C 46.2 °F /  7.9 °C 30.1 in /  1019.9 hPa Calm     95 % 0 in /  0.0 mm
05:37 47.7 °F /  8.7 °C 46.2 °F /  7.9 °C 30.1 in /  1019.9 hPa Calm     95 % 0 in /  0.0 mm
05:42 47.7 °F /  8.7 °C 46.2 °F /  7.9 °C 30.1 in /  1019.9 hPa Calm     95 % 0 in /  0.0 mm
05:47 47.8 °F /  8.8 °C 46.4 °F /  8.0 °C 30.1 in /  1019.9 hPa Calm     95 % 0 in /  0.0 mm
05:52 47.8 °F /  8.8 °C 46.4 °F /  8.0 °C 30.1 in /  1019.9 hPa Calm     95 % 0 in /  0.0 mm
06:02 47.8 °F /  8.8 °C 46.4 °F /  8.0 °C 30.1 in /  1019.9 hPa Calm     95 % 0 in /  0.0 mm
06:12 47.8 °F /  8.8 °C 46.4 °F /  8.0 °C 30.1 in /  1019.9 hPa Calm     95 % 0 in /  0.0 mm
06:17 47.8 °F /  8.8 °C 46.4 °F /  8.0 °C 30.1 in /  1019.9 hPa Calm     95 % 0 in /  0.0 mm
06:22 47.8 °F /  8.8 °C 46.4 °F /  8.0 °C 30.1 in /  1019.9 hPa Calm     95 % 0 in /  0.0 mm
06:27 47.8 °F /  8.8 °C 46.4 °F /  8.0 °C 30.1 in /  1019.9 hPa Calm     95 % 0 in /  0.0 mm
06:32 47.8 °F /  8.8 °C 46.4 °F /  8.0 °C 30.1 in /  1019.9 hPa Calm     95 % 0 in /  0.0 mm
06:37 48.2 °F /  9.0 °C 46.8 °F /  8.2 °C 30.1 in /  1019.5 hPa Calm     95 % 0 in /  0.0 mm
06:42 48.6 °F /  9.2 °C 47.1 °F /  8.4 °C 30.1 in /  1019.5 hPa Calm     95 % 0 in /  0.0 mm
06:47 48.9 °F /  9.4 °C 47.8 °F /  8.8 °C 30.1 in /  1019.5 hPa Calm     96 % 0 in /  0.0 mm
06:52 48.7 °F /  9.3 °C 47.3 °F /  8.5 °C 30.1 in /  1019.9 hPa Calm     95 % 0 in /  0.0 mm
06:57 48.6 °F /  9.2 °C 47.1 °F /  8.4 °C 30.1 in /  1019.9 hPa Calm     95 % 0 in /  0.0 mm
07:02 48.7 °F /  9.3 °C 47.3 °F /  8.5 °C 30.1 in /  1019.9 hPa Calm     95 % 0 in /  0.0 mm
07:07 49.3 °F /  9.6 °C 47.8 °F /  8.8 °C 30.1 in /  1019.5 hPa Calm     95 % 0 in /  0.0 mm
07:12 50.4 °F /  10.2 °C 49.3 °F /  9.6 °C 30.1 in /  1019.9 hPa Calm     96 % 0 in /  0.0 mm
07:17 51.1 °F /  10.6 °C 50 °F /  10.0 °C 30.1 in /  1019.9 hPa Calm     96 % 0 in /  0.0 mm
07:22 51.6 °F /  10.9 °C 50.2 °F /  10.1 °C 30.1 in /  1019.9 hPa Calm     95 % 0 in /  0.0 mm
07:32 52.2 °F /  11.2 °C 50.5 °F /  10.3 °C 30.1 in /  1019.5 hPa Calm     94 % 0 in /  0.0 mm
07:37 52.3 °F /  11.3 °C 50.7 °F /  10.4 °C 30.1 in /  1019.5 hPa Calm     94 % 0 in /  0.0 mm
07:42 52.9 °F /  11.6 °C 50.9 °F /  10.5 °C 30.1 in /  1019.5 hPa Calm     93 % 0 in /  0.0 mm
07:47 53.2 °F /  11.8 °C 51.3 °F /  10.7 °C 30.1 in /  1019.5 hPa Calm     93 % 0 in /  0.0 mm
07:52 53.4 °F /  11.9 °C 50.9 °F /  10.5 °C 30.1 in /  1019.5 hPa Calm     91 % 0 in /  0.0 mm
07:57 54.1 °F /  12.3 °C 51.6 °F /  10.9 °C 30.1 in /  1019.2 hPa Calm     91 % 0 in /  0.0 mm
08:02 54.7 °F /  12.6 °C 51.4 °F /  10.8 °C 30.1 in /  1019.2 hPa Calm     89 % 0 in /  0.0 mm
08:07 55 °F /  12.8 °C 51.6 °F /  10.9 °C 30.1 in /  1019.2 hPa Calm     88 % 0 in /  0.0 mm
08:12 55.2 °F /  12.9 °C 51.4 °F /  10.8 °C 30.1 in /  1019.2 hPa Calm     87 % 0 in /  0.0 mm
08:17 55.8 °F /  13.2 °C 52 °F /  11.1 °C 30.1 in /  1019.2 hPa Calm   1 mph /  1.6 km/h 87 % 0 in /  0.0 mm
08:22 56.1 °F /  13.4 °C 52 °F /  11.1 °C 30.1 in /  1019.2 hPa Calm   1 mph /  1.6 km/h 86 % 0 in /  0.0 mm
08:27 56.7 °F /  13.7 °C 52.2 °F /  11.2 °C 30.1 in /  1019.2 hPa Calm   2 mph /  3.2 km/h 85 % 0 in /  0.0 mm
08:32 56.8 °F /  13.8 °C 52 °F /  11.1 °C 30.1 in /  1019.5 hPa Calm   2 mph /  3.2 km/h 84 % 0 in /  0.0 mm
08:37 57.6 °F /  14.2 °C 52.7 °F /  11.5 °C 30.1 in /  1019.2 hPa Calm   2 mph /  3.2 km/h 84 % 0 in /  0.0 mm
08:42 57.9 °F /  14.4 °C 52.7 °F /  11.5 °C 30.1 in /  1019.5 hPa Calm   2 mph /  3.2 km/h 83 % 0 in /  0.0 mm
08:52 58.8 °F /  14.9 °C 53.4 °F /  11.9 °C 30.1 in /  1019.5 hPa Calm   2 mph /  3.2 km/h 82 % 0 in /  0.0 mm
08:57 58.8 °F /  14.9 °C 53.1 °F /  11.7 °C 30.1 in /  1019.5 hPa Calm   6 mph /  9.7 km/h 81 % 0 in /  0.0 mm
09:02 59.4 °F /  15.2 °C 53.2 °F /  11.8 °C 30.1 in /  1019.5 hPa SW 1 mph /  1.6 km/h 6 mph /  9.7 km/h 80 % 0 in /  0.0 mm
09:12 60.4 °F /  15.8 °C 53.6 °F /  12.0 °C 30.1 in /  1019.2 hPa Calm   4 mph /  6.4 km/h 78 % 0 in /  0.0 mm
09:17 61 °F /  16.1 °C 54.1 °F /  12.3 °C 30.1 in /  1019.2 hPa Calm   4 mph /  6.4 km/h 78 % 0 in /  0.0 mm
09:22 61.9 °F /  16.6 °C 54.3 °F /  12.4 °C 30.1 in /  1019.2 hPa SSE 1 mph /  1.6 km/h 4 mph /  6.4 km/h 76 % 0 in /  0.0 mm
09:27 62.2 °F /  16.8 °C 53.4 °F /  11.9 °C 30.1 in /  1019.2 hPa SSE 1 mph /  1.6 km/h 4 mph /  6.4 km/h 73 % 0 in /  0.0 mm
09:32 62.8 °F /  17.1 °C 54.3 °F /  12.4 °C 30.1 in /  1019.2 hPa SE 1 mph /  1.6 km/h 4 mph /  6.4 km/h 74 % 0 in /  0.0 mm
09:37 63 °F /  17.2 °C 53.4 °F /  11.9 °C 30.1 in /  1019.2 hPa SW 1 mph /  1.6 km/h 6 mph /  9.7 km/h 71 % 0 in /  0.0 mm
09:42 63.3 °F /  17.4 °C 54.1 °F /  12.3 °C 30.1 in /  1019.2 hPa SSW 3 mph /  4.8 km/h 6 mph /  9.7 km/h 72 % 0 in /  0.0 mm
09:47 63.7 °F /  17.6 °C 53.8 °F /  12.1 °C 30.1 in /  1019.2 hPa SSE 2 mph /  3.2 km/h 6 mph /  9.7 km/h 70 % 0 in /  0.0 mm
09:52 64.6 °F /  18.1 °C 55 °F /  12.8 °C 30.1 in /  1019.2 hPa Calm   6 mph /  9.7 km/h 71 % 0 in /  0.0 mm
09:57 64.9 °F /  18.3 °C 54.1 °F /  12.3 °C 30.1 in /  1019.2 hPa SW 1 mph /  1.6 km/h 5 mph /  8.0 km/h 68 % 0 in /  0.0 mm
10:02 64.8 °F /  18.2 °C 54 °F /  12.2 °C 30.1 in /  1019.2 hPa SE 3 mph /  4.8 km/h 7 mph /  11.3 km/h 68 % 0 in /  0.0 mm
10:12 65.1 °F /  18.4 °C 53.4 °F /  11.9 °C 30.1 in /  1019.2 hPa SW 7 mph /  11.3 km/h 7 mph /  11.3 km/h 66 % 0 in /  0.0 mm
10:17 65.3 °F /  18.5 °C 53.6 °F /  12.0 °C 30.1 in /  1019.2 hPa SW 2 mph /  3.2 km/h 7 mph /  11.3 km/h 66 % 0 in /  0.0 mm
10:22 65.8 °F /  18.8 °C 54.1 °F /  12.3 °C 30.1 in /  1018.8 hPa SW 1 mph /  1.6 km/h 8 mph /  12.9 km/h 66 % 0 in /  0.0 mm
10:32 66.7 °F /  19.3 °C 52.3 °F /  11.3 °C 30.1 in /  1018.8 hPa SSE 2 mph /  3.2 km/h 10 mph /  16.1 km/h 60 % 0 in /  0.0 mm
10:42 66.9 °F /  19.4 °C 52.5 °F /  11.4 °C 30.1 in /  1018.8 hPa SE 4 mph /  6.4 km/h 10 mph /  16.1 km/h 60 % 0 in /  0.0 mm
10:52 67.6 °F /  19.8 °C 53.2 °F /  11.8 °C 30.1 in /  1018.5 hPa East 2 mph /  3.2 km/h 9 mph /  14.5 km/h 60 % 0 in /  0.0 mm
11:02 68.4 °F /  20.2 °C 53.1 °F /  11.7 °C 30.1 in /  1018.5 hPa ESE 7 mph /  11.3 km/h 11 mph /  17.7 km/h 58 % 0 in /  0.0 mm
11:12 69.1 °F /  20.6 °C 53.6 °F /  12.0 °C 30.1 in /  1018.5 hPa SW 5 mph /  8.0 km/h 11 mph /  17.7 km/h 58 % 0 in /  0.0 mm
11:17 69.4 °F /  20.8 °C 53.1 °F /  11.7 °C 30.1 in /  1018.5 hPa SW 2 mph /  3.2 km/h 10 mph /  16.1 km/h 56 % 0 in /  0.0 mm
11:22 69.3 °F /  20.7 °C 52 °F /  11.1 °C 30.1 in /  1018.5 hPa SW 4 mph /  6.4 km/h 10 mph /  16.1 km/h 54 % 0 in /  0.0 mm
11:27 69.6 °F /  20.9 °C 55 °F /  12.8 °C 30.1 in /  1018.2 hPa South 1 mph /  1.6 km/h 10 mph /  16.1 km/h 60 % 0 in /  0.0 mm
11:32 69.6 °F /  20.9 °C 54.1 °F /  12.3 °C 30.1 in /  1018.2 hPa East 5 mph /  8.0 km/h 12 mph /  19.3 km/h 58 % 0 in /  0.0 mm
11:37 69.6 °F /  20.9 °C 55 °F /  12.8 °C 30.1 in /  1018.2 hPa SSW 4 mph /  6.4 km/h 12 mph /  19.3 km/h 60 % 0 in /  0.0 mm
11:42 70.2 °F /  21.2 °C 53.8 °F /  12.1 °C 30.1 in /  1018.2 hPa SSE 3 mph /  4.8 km/h 12 mph /  19.3 km/h 56 % 0 in /  0.0 mm
11:47 70.9 °F /  21.6 °C 56.3 °F /  13.5 °C 30.1 in /  1018.2 hPa East 6 mph /  9.7 km/h 10 mph /  16.1 km/h 60 % 0 in /  0.0 mm
11:52 70.3 °F /  21.3 °C 52.3 °F /  11.3 °C 30.1 in /  1017.8 hPa SSE 2 mph /  3.2 km/h 10 mph /  16.1 km/h 53 % 0 in /  0.0 mm
11:57 70.7 °F /  21.5 °C 52.7 °F /  11.5 °C 30.1 in /  1017.8 hPa SSW 3 mph /  4.8 km/h 10 mph /  16.1 km/h 53 % 0 in /  0.0 mm
12:02 71.4 °F /  21.9 °C 54.9 °F /  12.7 °C 30.1 in /  1017.8 hPa ESE 7 mph /  11.3 km/h 10 mph /  16.1 km/h 56 % 0 in /  0.0 mm
12:07 71.4 °F /  21.9 °C 54.5 °F /  12.5 °C 30.1 in /  1017.8 hPa SSW 3 mph /  4.8 km/h 10 mph /  16.1 km/h 55 % 0 in /  0.0 mm
12:12 71.4 °F /  21.9 °C 52.9 °F /  11.6 °C 30.1 in /  1017.8 hPa SSW 6 mph /  9.7 km/h 10 mph /  16.1 km/h 52 % 0 in /  0.0 mm
12:17 71.4 °F /  21.9 °C 54 °F /  12.2 °C 30.1 in /  1017.8 hPa ESE 6 mph /  9.7 km/h 11 mph /  17.7 km/h 54 % 0 in /  0.0 mm
12:22 71.4 °F /  21.9 °C 53.4 °F /  11.9 °C 30.1 in /  1017.8 hPa SSW 2 mph /  3.2 km/h 11 mph /  17.7 km/h 53 % 0 in /  0.0 mm
12:27 72 °F /  22.2 °C 54.3 °F /  12.4 °C 30.1 in /  1017.8 hPa SE 3 mph /  4.8 km/h 11 mph /  17.7 km/h 54 % 0 in /  0.0 mm
12:32 72.3 °F /  22.4 °C 53.8 °F /  12.1 °C 30.1 in /  1017.8 hPa South 4 mph /  6.4 km/h 10 mph /  16.1 km/h 52 % 0 in /  0.0 mm
12:37 72.3 °F /  22.4 °C 53.2 °F /  11.8 °C 30.1 in /  1017.8 hPa SE 6 mph /  9.7 km/h 11 mph /  17.7 km/h 51 % 0 in /  0.0 mm
12:42 72.3 °F /  22.4 °C 54.7 °F /  12.6 °C 30.1 in /  1017.8 hPa SW 4 mph /  6.4 km/h 11 mph /  17.7 km/h 54 % 0 in /  0.0 mm
12:47 72.7 °F /  22.6 °C 53.4 °F /  11.9 °C 30.1 in /  1017.8 hPa SE 2 mph /  3.2 km/h 11 mph /  17.7 km/h 51 % 0 in /  0.0 mm
12:52 72.9 °F /  22.7 °C 53.1 °F /  11.7 °C 30.1 in /  1017.8 hPa SE 2 mph /  3.2 km/h 11 mph /  17.7 km/h 50 % 0 in /  0.0 mm
12:57 73.4 °F /  23.0 °C 54.1 °F /  12.3 °C 30.1 in /  1017.8 hPa WNW 2 mph /  3.2 km/h 11 mph /  17.7 km/h 51 % 0 in /  0.0 mm
13:02 73.4 °F /  23.0 °C 53.1 °F /  11.7 °C 30.1 in /  1017.8 hPa SSE 3 mph /  4.8 km/h 10 mph /  16.1 km/h 49 % 0 in /  0.0 mm
13:07 73.6 °F /  23.1 °C 53.8 °F /  12.1 °C 30.1 in /  1017.8 hPa ESE 2 mph /  3.2 km/h 10 mph /  16.1 km/h 50 % 0 in /  0.0 mm
13:12 73.2 °F /  22.9 °C 52.9 °F /  11.6 °C 30.1 in /  1017.8 hPa ESE 4 mph /  6.4 km/h 9 mph /  14.5 km/h 49 % 0 in /  0.0 mm
13:17 73.6 °F /  23.1 °C 53.8 °F /  12.1 °C 30.1 in /  1017.8 hPa SE 2 mph /  3.2 km/h 9 mph /  14.5 km/h 50 % 0 in /  0.0 mm
13:22 73.9 °F /  23.3 °C 53.6 °F /  12.0 °C 30.1 in /  1017.5 hPa SE 3 mph /  4.8 km/h 11 mph /  17.7 km/h 49 % 0 in /  0.0 mm
13:27 73.9 °F /  23.3 °C 53.1 °F /  11.7 °C 30.1 in /  1017.5 hPa ENE 3 mph /  4.8 km/h 11 mph /  17.7 km/h 48 % 0 in /  0.0 mm
13:32 74.1 °F /  23.4 °C 54.3 °F /  12.4 °C 30.1 in /  1017.5 hPa SSE 3 mph /  4.8 km/h 11 mph /  17.7 km/h 50 % 0 in /  0.0 mm
13:37 74.7 °F /  23.7 °C 54.9 °F /  12.7 °C 30.1 in /  1017.5 hPa East 3 mph /  4.8 km/h 11 mph /  17.7 km/h 50 % 0 in /  0.0 mm
13:42 74.8 °F /  23.8 °C 53.2 °F /  11.8 °C 30.1 in /  1017.5 hPa SW 4 mph /  6.4 km/h 12 mph /  19.3 km/h 47 % 0 in /  0.0 mm
13:47 74.3 °F /  23.5 °C 54 °F /  12.2 °C 30.1 in /  1017.5 hPa South 7 mph /  11.3 km/h 12 mph /  19.3 km/h 49 % 0 in /  0.0 mm
13:52 74.5 °F /  23.6 °C 54.1 °F /  12.3 °C 30.1 in /  1017.5 hPa South 6 mph /  9.7 km/h 11 mph /  17.7 km/h 49 % 0 in /  0.0 mm
14:02 75.2 °F /  24.0 °C 53.6 °F /  12.0 °C 30 in /  1017.2 hPa SSW 7 mph /  11.3 km/h 10 mph /  16.1 km/h 47 % 0 in /  0.0 mm
14:07 75.2 °F /  24.0 °C 55.2 °F /  12.9 °C 30 in /  1017.2 hPa South 2 mph /  3.2 km/h 10 mph /  16.1 km/h 50 % 0 in /  0.0 mm
14:12 75.9 °F /  24.4 °C 53.6 °F /  12.0 °C 30 in /  1017.2 hPa SW 3 mph /  4.8 km/h 9 mph /  14.5 km/h 46 % 0 in /  0.0 mm
14:17 76.1 °F /  24.5 °C 55 °F /  12.8 °C 30 in /  1017.2 hPa SSW 4 mph /  6.4 km/h 9 mph /  14.5 km/h 48 % 0 in /  0.0 mm
14:22 76.3 °F /  24.6 °C 54.5 °F /  12.5 °C 30 in /  1017.2 hPa ESE 10 mph /  16.1 km/h 10 mph /  16.1 km/h 47 % 0 in /  0.0 mm
14:32 75.7 °F /  24.3 °C 54.7 °F /  12.6 °C 30 in /  1017.2 hPa SSW 1 mph /  1.6 km/h 10 mph /  16.1 km/h 48 % 0 in /  0.0 mm
14:37 76.6 °F /  24.8 °C 54.9 °F /  12.7 °C 30 in /  1016.8 hPa SSE 2 mph /  3.2 km/h 10 mph /  16.1 km/h 47 % 0 in /  0.0 mm
14:42 76.8 °F /  24.9 °C 53.8 °F /  12.1 °C 30 in /  1016.8 hPa South 4 mph /  6.4 km/h 10 mph /  16.1 km/h 45 % 0 in /  0.0 mm
14:47 76.8 °F /  24.9 °C 55.6 °F /  13.1 °C 30 in /  1016.8 hPa South 3 mph /  4.8 km/h 10 mph /  16.1 km/h 48 % 0 in /  0.0 mm
14:52 77.4 °F /  25.2 °C 55.6 °F /  13.1 °C 30 in /  1016.8 hPa SSW 5 mph /  8.0 km/h 10 mph /  16.1 km/h 47 % 0 in /  0.0 mm
14:57 77.4 °F /  25.2 °C 55 °F /  12.8 °C 30 in /  1016.8 hPa SSW 3 mph /  4.8 km/h 9 mph /  14.5 km/h 46 % 0 in /  0.0 mm
15:02 77.7 °F /  25.4 °C 55.9 °F /  13.3 °C 30 in /  1016.5 hPa SSW 2 mph /  3.2 km/h 8 mph /  12.9 km/h 47 % 0 in /  0.0 mm
15:07 77.7 °F /  25.4 °C 55.9 °F /  13.3 °C 30 in /  1016.5 hPa SSW 5 mph /  8.0 km/h 9 mph /  14.5 km/h 47 % 0 in /  0.0 mm
15:12 77.9 °F /  25.5 °C 57.2 °F /  14.0 °C 30 in /  1016.5 hPa East 4 mph /  6.4 km/h 10 mph /  16.1 km/h 49 % 0 in /  0.0 mm
15:17 77.5 °F /  25.3 °C 55 °F /  12.8 °C 30 in /  1016.1 hPa SE 5 mph /  8.0 km/h 10 mph /  16.1 km/h 46 % 0 in /  0.0 mm
15:22 77.7 °F /  25.4 °C 55.2 °F /  12.9 °C 30 in /  1016.5 hPa SW 3 mph /  4.8 km/h 10 mph /  16.1 km/h 46 % 0 in /  0.0 mm
15:27 77.7 °F /  25.4 °C 56.5 °F /  13.6 °C 30 in /  1016.1 hPa SW 5 mph /  8.0 km/h 10 mph /  16.1 km/h 48 % 0 in /  0.0 mm
15:32 78.3 °F /  25.7 °C 56.3 °F /  13.5 °C 30 in /  1016.1 hPa Calm   10 mph /  16.1 km/h 47 % 0 in /  0.0 mm
15:37 78.4 °F /  25.8 °C 55.4 °F /  13.0 °C 30 in /  1016.1 hPa ENE 1 mph /  1.6 km/h 9 mph /  14.5 km/h 45 % 0 in /  0.0 mm
15:42 78.4 °F /  25.8 °C 57.2 °F /  14.0 °C 30 in /  1016.1 hPa Calm   9 mph /  14.5 km/h 48 % 0 in /  0.0 mm
15:47 78.4 °F /  25.8 °C 55.9 °F /  13.3 °C 30 in /  1016.1 hPa SSW 4 mph /  6.4 km/h 7 mph /  11.3 km/h 46 % 0 in /  0.0 mm
15:52 78.6 °F /  25.9 °C 55.6 °F /  13.1 °C 30 in /  1016.1 hPa ESE 2 mph /  3.2 km/h 7 mph /  11.3 km/h 45 % 0 in /  0.0 mm
15:57 79 °F /  26.1 °C 57 °F /  13.9 °C 30 in /  1016.1 hPa ESE 4 mph /  6.4 km/h 7 mph /  11.3 km/h 47 % 0 in /  0.0 mm
16:02 78.6 °F /  25.9 °C 55.6 °F /  13.1 °C 30 in /  1015.8 hPa SSW 1 mph /  1.6 km/h 8 mph /  12.9 km/h 45 % 0 in /  0.0 mm
16:12 78.8 °F /  26.0 °C 56.3 °F /  13.5 °C 30 in /  1015.8 hPa SW 3 mph /  4.8 km/h 9 mph /  14.5 km/h 46 % 0 in /  0.0 mm
16:17 79 °F /  26.1 °C 55.2 °F /  12.9 °C 30 in /  1015.8 hPa SW 2 mph /  3.2 km/h 9 mph /  14.5 km/h 44 % 0 in /  0.0 mm
16:22 78.8 °F /  26.0 °C 56.8 °F /  13.8 °C 30 in /  1015.5 hPa ESE 6 mph /  9.7 km/h 8 mph /  12.9 km/h 47 % 0 in /  0.0 mm
16:27 79 °F /  26.1 °C 56.5 °F /  13.6 °C 30 in /  1015.5 hPa SW 2 mph /  3.2 km/h 9 mph /  14.5 km/h 46 % 0 in /  0.0 mm
16:32 79.3 °F /  26.3 °C 57.9 °F /  14.4 °C 30 in /  1015.5 hPa South 5 mph /  8.0 km/h 9 mph /  14.5 km/h 48 % 0 in /  0.0 mm
16:37 79.7 °F /  26.5 °C 56.5 °F /  13.6 °C 30 in /  1015.1 hPa ESE 3 mph /  4.8 km/h 8 mph /  12.9 km/h 45 % 0 in /  0.0 mm
16:42 80.1 °F /  26.7 °C 56.8 °F /  13.8 °C 30 in /  1015.1 hPa SE 2 mph /  3.2 km/h 8 mph /  12.9 km/h 45 % 0 in /  0.0 mm
16:47 80.2 °F /  26.8 °C 57.6 °F /  14.2 °C 30 in /  1015.1 hPa ESE 4 mph /  6.4 km/h 8 mph /  12.9 km/h 46 % 0 in /  0.0 mm
16:52 80.4 °F /  26.9 °C 57.2 °F /  14.0 °C 30 in /  1015.1 hPa SSW 5 mph /  8.0 km/h 8 mph /  12.9 km/h 45 % 0 in /  0.0 mm
16:57 79.9 °F /  26.6 °C 55.4 °F /  13.0 °C 30 in /  1015.1 hPa Calm   8 mph /  12.9 km/h 43 % 0 in /  0.0 mm
17:02 80.4 °F /  26.9 °C 56.5 °F /  13.6 °C 30 in /  1015.1 hPa SW 3 mph /  4.8 km/h 8 mph /  12.9 km/h 44 % 0 in /  0.0 mm
17:12 80.4 °F /  26.9 °C 55.2 °F /  12.9 °C 30 in /  1015.1 hPa South 3 mph /  4.8 km/h 8 mph /  12.9 km/h 42 % 0 in /  0.0 mm
17:17 80.2 °F /  26.8 °C 56.3 °F /  13.5 °C 30 in /  1014.8 hPa ESE 6 mph /  9.7 km/h 7 mph /  11.3 km/h 44 % 0 in /  0.0 mm
17:22 80.2 °F /  26.8 °C 57 °F /  13.9 °C 30 in /  1014.8 hPa ESE 2 mph /  3.2 km/h 7 mph /  11.3 km/h 45 % 0 in /  0.0 mm
17:27 80.2 °F /  26.8 °C 57 °F /  13.9 °C 30 in /  1014.8 hPa ESE 5 mph /  8.0 km/h 7 mph /  11.3 km/h 45 % 0 in /  0.0 mm
17:32 80.4 °F /  26.9 °C 58.3 °F /  14.6 °C 30 in /  1014.8 hPa SE 3 mph /  4.8 km/h 8 mph /  12.9 km/h 47 % 0 in /  0.0 mm
17:37 81.1 °F /  27.3 °C 58.5 °F /  14.7 °C 30 in /  1014.4 hPa South 2 mph /  3.2 km/h 8 mph /  12.9 km/h 46 % 0 in /  0.0 mm
17:42 81 °F /  27.2 °C 57.6 °F /  14.2 °C 30 in /  1014.4 hPa South 2 mph /  3.2 km/h 11 mph /  17.7 km/h 45 % 0 in /  0.0 mm
17:47 81 °F /  27.2 °C 57.6 °F /  14.2 °C 30 in /  1014.4 hPa SW 1 mph /  1.6 km/h 11 mph /  17.7 km/h 45 % 0 in /  0.0 mm
17:52 80.8 °F /  27.1 °C 56.1 °F /  13.4 °C 30 in /  1014.4 hPa SSW 5 mph /  8.0 km/h 11 mph /  17.7 km/h 43 % 0 in /  0.0 mm
17:57 80.6 °F /  27.0 °C 56.1 °F /  13.4 °C 30 in /  1014.4 hPa SE 5 mph /  8.0 km/h 9 mph /  14.5 km/h 43 % 0 in /  0.0 mm
18:02 80.6 °F /  27.0 °C 57.4 °F /  14.1 °C 30 in /  1014.4 hPa South 3 mph /  4.8 km/h 9 mph /  14.5 km/h 45 % 0 in /  0.0 mm
18:07 80.8 °F /  27.1 °C 56.8 °F /  13.8 °C 30 in /  1014.4 hPa South 3 mph /  4.8 km/h 8 mph /  12.9 km/h 44 % 0 in /  0.0 mm
18:12 80.8 °F /  27.1 °C 56.8 °F /  13.8 °C 30 in /  1014.4 hPa ESE 9 mph /  14.5 km/h 9 mph /  14.5 km/h 44 % 0 in /  0.0 mm
18:17 80.4 °F /  26.9 °C 57.2 °F /  14.0 °C 30 in /  1014.4 hPa SSW 1 mph /  1.6 km/h 11 mph /  17.7 km/h 45 % 0 in /  0.0 mm
18:22 80.4 °F /  26.9 °C 57.7 °F /  14.3 °C 30 in /  1014.4 hPa SSE 1 mph /  1.6 km/h 11 mph /  17.7 km/h 46 % 0 in /  0.0 mm
18:32 79.9 °F /  26.6 °C 57.2 °F /  14.0 °C 29.9 in /  1014.1 hPa South 1 mph /  1.6 km/h 7 mph /  11.3 km/h 46 % 0 in /  0.0 mm
18:42 80.8 °F /  27.1 °C 58.6 °F /  14.8 °C 29.9 in /  1013.8 hPa SE 4 mph /  6.4 km/h 7 mph /  11.3 km/h 47 % 0 in /  0.0 mm
18:47 80.2 °F /  26.8 °C 58.8 °F /  14.9 °C 29.9 in /  1013.8 hPa ESE 3 mph /  4.8 km/h 7 mph /  11.3 km/h 48 % 0 in /  0.0 mm
18:52 80.1 °F /  26.7 °C 58.1 °F /  14.5 °C 29.9 in /  1013.8 hPa South 2 mph /  3.2 km/h 7 mph /  11.3 km/h 47 % 0 in /  0.0 mm
18:57 79.7 °F /  26.5 °C 57.7 °F /  14.3 °C 29.9 in /  1013.8 hPa SW 2 mph /  3.2 km/h 7 mph /  11.3 km/h 47 % 0 in /  0.0 mm
19:02 79.3 °F /  26.3 °C 58.5 °F /  14.7 °C 29.9 in /  1013.8 hPa Calm   5 mph /  8.0 km/h 49 % 0 in /  0.0 mm
19:07 79 °F /  26.1 °C 59.4 °F /  15.2 °C 29.9 in /  1013.8 hPa East 2 mph /  3.2 km/h 5 mph /  8.0 km/h 51 % 0 in /  0.0 mm
19:12 78.6 °F /  25.9 °C 60.1 °F /  15.6 °C 29.9 in /  1013.8 hPa ESE 1 mph /  1.6 km/h 5 mph /  8.0 km/h 53 % 0 in /  0.0 mm
19:22 77.7 °F /  25.4 °C 59.7 °F /  15.4 °C 29.9 in /  1013.8 hPa SSE 3 mph /  4.8 km/h 5 mph /  8.0 km/h 54 % 0 in /  0.0 mm
19:27 77.5 °F /  25.3 °C 60.6 °F /  15.9 °C 29.9 in /  1013.8 hPa Calm   6 mph /  9.7 km/h 56 % 0 in /  0.0 mm
19:32 77.4 °F /  25.2 °C 61.3 °F /  16.3 °C 29.9 in /  1013.8 hPa ESE 1 mph /  1.6 km/h 6 mph /  9.7 km/h 58 % 0 in /  0.0 mm
19:37 76.8 °F /  24.9 °C 60.4 °F /  15.8 °C 29.9 in /  1013.8 hPa ESE 2 mph /  3.2 km/h 6 mph /  9.7 km/h 57 % 0 in /  0.0 mm
19:42 76.5 °F /  24.7 °C 61 °F /  16.1 °C 29.9 in /  1013.4 hPa ESE 1 mph /  1.6 km/h 5 mph /  8.0 km/h 59 % 0 in /  0.0 mm
19:47 75.9 °F /  24.4 °C 60.6 °F /  15.9 °C 29.9 in /  1013.4 hPa Calm   5 mph /  8.0 km/h 59 % 0 in /  0.0 mm
19:52 75.6 °F /  24.2 °C 61.2 °F /  16.2 °C 29.9 in /  1013.4 hPa ESE 2 mph /  3.2 km/h 3 mph /  4.8 km/h 61 % 0 in /  0.0 mm
19:57 75 °F /  23.9 °C 61.2 °F /  16.2 °C 29.9 in /  1013.4 hPa Calm   4 mph /  6.4 km/h 62 % 0 in /  0.0 mm
20:02 74.7 °F /  23.7 °C 60.8 °F /  16.0 °C 29.9 in /  1013.4 hPa Calm   4 mph /  6.4 km/h 62 % 0 in /  0.0 mm
20:07 74.5 °F /  23.6 °C 61 °F /  16.1 °C 29.9 in /  1013.4 hPa Calm   4 mph /  6.4 km/h 63 % 0 in /  0.0 mm
20:12 74.5 °F /  23.6 °C 61 °F /  16.1 °C 29.9 in /  1013.4 hPa Calm   3 mph /  4.8 km/h 63 % 0 in /  0.0 mm
20:17 74.5 °F /  23.6 °C 60.6 °F /  15.9 °C 29.9 in /  1013.4 hPa Calm   2 mph /  3.2 km/h 62 % 0 in /  0.0 mm
20:22 74.5 °F /  23.6 °C 60.1 °F /  15.6 °C 29.9 in /  1013.4 hPa SE 1 mph /  1.6 km/h 2 mph /  3.2 km/h 61 % 0 in /  0.0 mm
20:32 74.7 °F /  23.7 °C 60.8 °F /  16.0 °C 29.9 in /  1013.4 hPa Calm   2 mph /  3.2 km/h 62 % 0 in /  0.0 mm
20:37 74.5 °F /  23.6 °C 60.6 °F /  15.9 °C 29.9 in /  1013.4 hPa Calm   2 mph /  3.2 km/h 62 % 0 in /  0.0 mm
20:42 74.1 °F /  23.4 °C 60.8 °F /  16.0 °C 29.9 in /  1013.4 hPa Calm   1 mph /  1.6 km/h 63 % 0 in /  0.0 mm
20:47 73.8 °F /  23.2 °C 60.8 °F /  16.0 °C 29.9 in /  1013.4 hPa Calm     64 % 0 in /  0.0 mm
20:52 73.6 °F /  23.1 °C 61.2 °F /  16.2 °C 29.9 in /  1013.1 hPa Calm     65 % 0 in /  0.0 mm
20:57 73.4 °F /  23.0 °C 60.1 °F /  15.6 °C 29.9 in /  1013.1 hPa Calm     63 % 0 in /  0.0 mm
21:02 73.2 °F /  22.9 °C 60.8 °F /  16.0 °C 29.9 in /  1013.1 hPa Calm     65 % 0 in /  0.0 mm
21:12 72.7 °F /  22.6 °C 61.2 °F /  16.2 °C 29.9 in /  1013.1 hPa Calm     67 % 0 in /  0.0 mm
21:17 72.3 °F /  22.4 °C 60.3 °F /  15.7 °C 29.9 in /  1013.1 hPa Calm     66 % 0 in /  0.0 mm
21:22 71.8 °F /  22.1 °C 60.3 °F /  15.7 °C 29.9 in /  1012.8 hPa Calm     67 % 0 in /  0.0 mm
21:27 71.2 °F /  21.8 °C 59.7 °F /  15.4 °C 29.9 in /  1012.8 hPa Calm     67 % 0 in /  0.0 mm
21:32 71.1 °F /  21.7 °C 59.9 °F /  15.5 °C 29.9 in /  1012.8 hPa Calm     68 % 0 in /  0.0 mm
21:37 70.5 °F /  21.4 °C 59.4 °F /  15.2 °C 29.9 in /  1012.8 hPa Calm     68 % 0 in /  0.0 mm
21:42 70.3 °F /  21.3 °C 59.4 °F /  15.2 °C 29.9 in /  1012.8 hPa Calm     68 % 0 in /  0.0 mm
21:47 70 °F /  21.1 °C 59 °F /  15.0 °C 29.9 in /  1012.8 hPa Calm     68 % 0 in /  0.0 mm
21:52 69.6 °F /  20.9 °C 59.4 °F /  15.2 °C 29.9 in /  1012.8 hPa SE 1 mph /  1.6 km/h   70 % 0 in /  0.0 mm
21:57 68.7 °F /  20.4 °C 59.7 °F /  15.4 °C 29.9 in /  1012.8 hPa Calm   1 mph /  1.6 km/h 73 % 0 in /  0.0 mm
22:02 68.2 °F /  20.1 °C 58.8 °F /  14.9 °C 29.9 in /  1012.8 hPa Calm   1 mph /  1.6 km/h 72 % 0 in /  0.0 mm
22:07 67.8 °F /  19.9 °C 58.5 °F /  14.7 °C 29.9 in /  1012.8 hPa WNW 1 mph /  1.6 km/h 1 mph /  1.6 km/h 72 % 0 in /  0.0 mm
22:12 67.5 °F /  19.7 °C 58.5 °F /  14.7 °C 29.9 in /  1012.8 hPa Calm   1 mph /  1.6 km/h 73 % 0 in /  0.0 mm
22:17 67.3 °F /  19.6 °C 58.6 °F /  14.8 °C 29.9 in /  1012.8 hPa Calm   1 mph /  1.6 km/h 74 % 0 in /  0.0 mm
22:22 67.6 °F /  19.8 °C 59.4 °F /  15.2 °C 29.9 in /  1012.8 hPa NNE 2 mph /  3.2 km/h 2 mph /  3.2 km/h 75 % 0 in /  0.0 mm
22:32 67.6 °F /  19.8 °C 58.6 °F /  14.8 °C 29.9 in /  1012.8 hPa Calm   2 mph /  3.2 km/h 73 % 0 in /  0.0 mm
22:37 67.3 °F /  19.6 °C 59 °F /  15.0 °C 29.9 in /  1012.8 hPa Calm   2 mph /  3.2 km/h 75 % 0 in /  0.0 mm
22:42 67.3 °F /  19.6 °C 59 °F /  15.0 °C 29.9 in /  1012.4 hPa Calm   1 mph /  1.6 km/h 75 % 0 in /  0.0 mm
22:47 67.3 °F /  19.6 °C 59 °F /  15.0 °C 29.9 in /  1012.4 hPa Calm   1 mph /  1.6 km/h 75 % 0 in /  0.0 mm
22:52 66.7 °F /  19.3 °C 58.6 °F /  14.8 °C 29.9 in /  1012.4 hPa Calm   1 mph /  1.6 km/h 75 % 0 in /  0.0 mm
22:57 66.6 °F /  19.2 °C 58.5 °F /  14.7 °C 29.9 in /  1012.1 hPa Calm   1 mph /  1.6 km/h 75 % 0 in /  0.0 mm
23:02 66.6 °F /  19.2 °C 58.8 °F /  14.9 °C 29.9 in /  1012.1 hPa Calm   1 mph /  1.6 km/h 76 % 0 in /  0.0 mm
23:07 66.4 °F /  19.1 °C 58.3 °F /  14.6 °C 29.9 in /  1012.1 hPa Calm   1 mph /  1.6 km/h 75 % 0 in /  0.0 mm
23:12 66.4 °F /  19.1 °C 58.3 °F /  14.6 °C 29.9 in /  1012.1 hPa Calm   1 mph /  1.6 km/h 75 % 0 in /  0.0 mm
23:17 66 °F /  18.9 °C 58.3 °F /  14.6 °C 29.9 in /  1012.1 hPa Calm   1 mph /  1.6 km/h 76 % 0 in /  0.0 mm
23:22 65.3 °F /  18.5 °C 57.9 °F /  14.4 °C 29.9 in /  1011.7 hPa Calm   2 mph /  3.2 km/h 77 % 0 in /  0.0 mm
23:27 65.3 °F /  18.5 °C 57.6 °F /  14.2 °C 29.9 in /  1011.7 hPa Calm   2 mph /  3.2 km/h 76 % 0 in /  0.0 mm
23:32 65.1 °F /  18.4 °C 57.4 °F /  14.1 °C 29.9 in /  1011.7 hPa Calm   2 mph /  3.2 km/h 76 % 0 in /  0.0 mm
23:37 65.3 °F /  18.5 °C 57.2 °F /  14.0 °C 29.9 in /  1011.7 hPa Calm   1 mph /  1.6 km/h 75 % 0 in /  0.0 mm
23:42 65.3 °F /  18.5 °C 57.6 °F /  14.2 °C 29.9 in /  1011.7 hPa Calm   1 mph /  1.6 km/h 76 % 0 in /  0.0 mm
23:47 65.5 °F /  18.6 °C 57.4 °F /  14.1 °C 29.9 in /  1011.7 hPa Calm   1 mph /  1.6 km/h 75 % 0 in /  0.0 mm
23:52 65.7 °F /  18.7 °C 57.2 °F /  14.0 °C 29.9 in /  1011.7 hPa WNW 1 mph /  1.6 km/h 1 mph /  1.6 km/h 74 % 0 in /  0.0 mm
23:57 65.5 °F /  18.6 °C 57.4 °F /  14.1 °C 29.9 in /  1011.7 hPa Calm   1 mph /  1.6 km/h 75 % 0 in /  0.0 mm
Meteo18
Compliments of Weather Underground - 4 mb

Script developed by  Jim McMurry - jmcmurry@mwt.net Adapted for the template by  Wim van der Kuil - Leuven-Template.eu

You find our weather info also at:

European Weather Network

Weather Underground

Equipment we use:

Weather-station
Davis Vue

Weather-program
Meteohub

Weather-server
Raspberry PI 2 B+

Provider
1 and 1

Davis Vue

Meteohub

Raspberry PI 2 B+

1 and 1